Flight Track Log - Related Links

Times and Time Zones

All times are in EST time to prevent confusion due to time zone crossing. See the SWA4488 flight status page for this flight to view local times or setup timezone preferences in your user account.

Time Position Orientation Groundspeed Altitude Reporting Facility
EST Latitude Longitude Course Direction KTS MPH feet Rate Location/Type
Wed 10:00:50 PM 39.8167 -104.6333 90° East 182 209 6,900  Level Denver TRACON
Wed 10:01:50 PM 39.8000 -104.5500 105° East 264 304 9,300 1,661 Climbing Denver TRACON
Wed 10:02:42 PM 39.7847 -104.4633 103° East 294 338 10,000 2,071 Climbing Denver Center
Wed 10:03:43 PM 39.7775 -104.3536 95° East 306 352 13,200 2,508 Climbing Denver Center
Wed 10:04:44 PM 39.7700 -104.2261 94° East 364 419 15,100 2,410 Climbing Denver Center
Wed 10:05:45 PM 39.7608 -104.0722 94° East 416 479 18,100 3,295 Climbing Denver Center
Wed 10:06:00 PM 39.8495 -103.9481 90° East  Level Estimated
Wed 10:06:46 PM 39.7383 -103.9061 100° East 442 509 21,800  Level Denver Center
Wed 10:07:48 PM 39.7275 -103.7547 95° East 443 510 24,500 2,488 Climbing Denver Center
Wed 10:08:49 PM 39.7167 -103.5950 95° East 443 510 26,900 2,557 Climbing Denver Center
Wed 10:09:50 PM 39.7033 -103.4244 96° East 466 536 29,700 2,803 Climbing Denver Center
Wed 10:10:51 PM 39.6908 -103.2617 96° East 458 527 32,600 2,557 Climbing Denver Center
Wed 10:11:52 PM 39.6800 -103.1025 95° East 445 512 34,900 2,213 Climbing Denver Center
Wed 10:12:53 PM 39.6653 -102.9103 96° East 446 513 37,100 1,756 Climbing Denver Center
Wed 10:13:55 PM 39.6728 -102.7514 86° East 443 510 38,500 1,122 Climbing Denver Center
Wed 10:14:56 PM 39.6681 -102.5947 92° East 455 524 39,400 885 Climbing Denver Center
Wed 10:15:57 PM 39.6519 -102.4350 97° East 466 536 40,300 787 Climbing Denver Center
Wed 10:16:58 PM 39.6347 -102.2461 97° East 472 543 41,000 344 Climbing Denver Center
Wed 10:17:59 PM 39.6197 -102.0808 97° East 481 554 41,000  Level Denver Center
Wed 10:19:00 PM 39.6025 -101.8881 97° East 483 556 41,000  Level Denver Center
Wed 10:20:01 PM 39.5864 -101.7233 97° East 483 556 41,000  Level Denver Center
Wed 10:21:03 PM 39.5703 -101.5586 97° East 481 554 41,000  Level Denver Center
Wed 10:22:04 PM 39.5508 -101.3667 97° East 482 555 41,000  Level Denver Center
Wed 10:23:05 PM 39.5350 -101.2028 97° East 480 552 41,000  Level Denver Center
Wed 10:24:06 PM 39.5183 -101.0389 97° East 480 552 41,000  Level Denver Center
Wed 10:25:07 PM 39.4989 -100.8456 97° East 485 558 41,000  Level Denver Center
Wed 10:26:08 PM 39.4817 -100.6811 98° East 484 557 41,000  Level Denver Center
Wed 10:27:09 PM 39.4611 -100.4900 98° East 482 555 41,000  Level Denver Center
Wed 10:28:10 PM 39.4431 -100.3253 98° East 483 556 41,000  Level Denver Center
Wed 10:29:12 PM 39.4256 -100.1592 98° East 487 560 41,000  Level Denver Center
Wed 10:30:13 PM 39.4039 -99.9636 98° East 492 566 41,000  Level Denver Center
Wed 10:31:14 PM 39.3844 -99.7994 99° East 487 560 41,000  Level Denver Center
Wed 10:32:15 PM 39.3628 -99.6036 98° East 492 566 41,000  Level Denver Center
Wed 10:33:16 PM 39.3442 -99.4386 98° East 487 560 41,000  Level Denver Center
Wed 10:34:17 PM 39.3247 -99.2728 99° East 488 562 41,000  Level Denver Center
Wed 10:35:04 PM 39.3069 -99.1244 99° East 486 559 41,000  Level Kansas City Center
Wed 10:36:05 PM 39.2858 -98.9528 99° East 485 558 41,000  Level Kansas City Center
Wed 10:37:06 PM 39.2656 -98.7767 98° East 481 554 41,000  Level Kansas City Center
Wed 10:38:06 PM 39.2439 -98.6131 100° East 483 556 41,000  Level Kansas City Center
Wed 10:39:07 PM 39.2236 -98.4339 98° East 487 560 41,000  Level Kansas City Center
Wed 10:40:08 PM 39.2014 -98.2650 100° East 487 560 41,000  Level Kansas City Center
Wed 10:41:08 PM 39.1817 -98.0931 98° East 486 559 41,000  Level Kansas City Center
Wed 10:42:09 PM 39.1586 -97.9200 100° East 487 560 41,000  Level Kansas City Center
Wed 10:43:10 PM 39.1317 -97.7339 101° East 490 564 41,000  Level Kansas City Center
Wed 10:44:11 PM 39.1111 -97.5681 99° East 490 564 41,000  Level Kansas City Center
Wed 10:45:11 PM 39.0892 -97.4028 100° East 489 563 41,000  Level Kansas City Center
Wed 10:46:12 PM 39.0631 -97.2097 100° East 491 565 41,000 -1,328 Level Kansas City Center
Wed 10:47:13 PM 39.0425 -97.0436 99° East 490 564 38,300 -2,410 Descending Kansas City Center
Wed 10:48:14 PM 39.0192 -96.8803 100° East 489 563 36,100 -2,777 Descending Kansas City Center
Wed 10:49:14 PM 38.9933 -96.7017 100° East 465 535 32,700 -3,124 Descending Kansas City Center
Wed 10:50:15 PM 38.9758 -96.5633 99° East 452 520 29,800 -2,656 Descending Kansas City Center
Wed 10:51:16 PM 38.9522 -96.4053 101° East 440 506 27,300 -2,479 Descending Kansas City Center
Wed 10:52:16 PM 38.9272 -96.2414 101° East 426 490 24,800 -2,331 Descending Kansas City Center
Wed 10:53:17 PM 38.9072 -96.1039 101° East 415 478 22,600 -1,967 Descending Kansas City Center
Wed 10:54:18 PM 38.8894 -95.9650 99° East 413 475 20,800 -1,426 Descending Kansas City Center
Wed 10:55:19 PM 38.8919 -95.8053 89° East 404 465 19,700 -1,190 Descending Kansas City Center
Wed 10:56:19 PM 38.8928 -95.6683 90° East 403 464 18,400 -1,736 Descending Kansas City Center
Wed 10:57:20 PM 38.9219 -95.5464 73° East 373 429 16,200 -2,754 Descending Kansas City Center
Wed 10:58:21 PM 38.9728 -95.4136 64° Northeast 372 428 12,800 -2,975 Descending Kansas City Center
Wed 10:59:21 PM 39.0133 -95.3039 65° Northeast 358 412 10,200 -1,785 Descending Kansas City Center
Wed 11:00:22 PM 39.0469 -95.2103 65° Northeast 309 356 9,200 -1,377 Descending Kansas City Center
Wed 11:01:23 PM 39.0833 -95.1119 64° Northeast 274 315 7,400 -1,636 Descending Kansas City Center
Wed 11:02:23 PM 39.1131 -95.0311 65° Northeast 264 304 5,900 -1,537 Descending Kansas City Center
Wed 11:03:24 PM 39.1478 -94.9372 64° Northeast 262 302 4,300 -1,082 Descending Kansas City Center
Wed 11:04:25 PM 39.1756 -94.8619 65° Northeast 246 283 3,700 -595 Descending Kansas City Center
Wed 11:05:25 PM 39.1983 -94.8050 63° Northeast 185 213 3,100 -694 Descending Kansas City Center
Wed 11:06:26 PM 39.2292 -94.7611 48° Northeast 149 171 2,300 -639 Descending Kansas City Center
Wed 11:07:27 PM 39.2572 -94.7389 32° Northeast 127 146 1,800 -545 Descending Kansas City Center
Wed 11:08:27 PM 39.2875 -94.7300 13° North 117 135 1,200 -600 Descending Kansas City Center
Wed 11:10:00 PM 39.2976 -94.7139 67° East  Level Estimated

Login

Don't have an account? Register now (free) for customized features, flight alerts, and more!